22 maggio 2022

Tempo Codice Tempo metereologico Temp. Vista Nuvole Vento METAR/SPECI
09:00
V
19 °C 10 km+ - 050°   050° 9 kt METAR LFLN 220700Z AUTO 05009KT CAVOK 19/12 Q1014 TEMPO FEW080CB
08:30
V
18 °C 10 km+ - 030°   030° 7 kt METAR LFLN 220630Z AUTO 03007KT CAVOK 18/11 Q1014 TEMPO FEW080CB
08:00
V
17 °C 10 km+ - 050°   050° 6 kt METAR LFLN 220600Z AUTO 05006KT 020V080 CAVOK 17/11 Q1014 TEMPO FEW080CB
07:30
V
16 °C 10 km+ - 040°   040° 3 kt METAR LFLN 220530Z AUTO 04003KT 010V070 CAVOK 16/11 Q1014 TEMPO FEW080CB
07:00
V
16 °C 10 km+ - 040°   040° 2 kt METAR LFLN 220500Z AUTO 04002KT CAVOK 16/12 Q1014
06:30
V
16 °C 10 km+ - 060°   060° 3 kt METAR LFLN 220430Z AUTO 06003KT CAVOK 16/11 Q1014
06:00
V
16 °C 10 km+ - Var   Var 2 kt METAR LFLN 220400Z AUTO VRB02KT CAVOK 16/11 Q1014
05:30
V
17 °C 10 km+ - Var   Var 2 kt METAR LFLN 220330Z AUTO VRB02KT CAVOK 17/11 Q1014
05:00
V
17 °C 10 km+ - Var   Var 2 kt METAR LFLN 220300Z AUTO VRB02KT CAVOK 17/12 Q1014
04:30
V
16 °C 10 km+ - Var   Var 2 kt METAR LFLN 220230Z AUTO VRB02KT CAVOK 16/12 Q1015
04:00
V
17 °C 10 km+ - Var   Var 3 kt METAR LFLN 220200Z AUTO VRB03KT CAVOK 17/12 Q1015
03:30
V
17 °C 10 km+ - Var   Var 2 kt METAR LFLN 220130Z AUTO VRB02KT CAVOK 17/12 Q1015
03:00
V
17 °C 10 km+ - 030°   030° 4 kt METAR LFLN 220100Z AUTO 03004KT CAVOK 17/13 Q1015
02:30
V
18 °C 10 km+ - 020°   020° 5 kt METAR LFLN 220030Z AUTO 02005KT CAVOK 18/13 Q1016
02:00
V
18 °C 10 km+ - Var   Var 2 kt METAR LFLN 220000Z AUTO VRB02KT CAVOK 18/13 Q1016
01:30
V
18 °C 10 km+ - Var   Var 3 kt METAR LFLN 212330Z AUTO VRB03KT CAVOK 18/14 Q1016
01:00
V
20 °C 10 km+ - 040°   040° 4 kt METAR LFLN 212300Z AUTO 04004KT 010V070 CAVOK 20/14 Q1016
00:30
V
20 °C 10 km+ - Var   Var 3 kt METAR LFLN 212230Z AUTO VRB03KT CAVOK 20/14 Q1016
00:00
V
20 °C 10 km+ - Var   Var 2 kt METAR LFLN 212200Z AUTO VRB02KT CAVOK 20/15 Q1017

21 maggio 2022

Tempo Codice Tempo metereologico Temp. Vista Nuvole Vento METAR/SPECI
23:30
V
21 °C 10 km+ - Var   Var 3 kt METAR LFLN 212130Z AUTO VRB03KT CAVOK 21/15 Q1017
23:00
V
21 °C 10 km+ - 050°   050° 4 kt METAR LFLN 212100Z AUTO 05004KT 020V100 CAVOK 21/15 Q1017
22:30
V
22 °C 10 km+ - 050°   050° 5 kt METAR LFLN 212030Z AUTO 05005KT CAVOK 22/16 Q1017
22:00
V
22 °C 10 km+ - 060°   060° 5 kt METAR LFLN 212000Z AUTO 06005KT CAVOK 22/16 Q1017
21:30
V
23 °C 10 km+ - 070°   070° 5 kt METAR LFLN 211930Z AUTO 07005KT CAVOK 23/16 Q1017
21:00
V
24 °C 10 km+ - 060°   060° 6 kt METAR LFLN 211900Z AUTO 06006KT CAVOK 24/17 Q1017 NOSIG
20:30
V
25 °C 10 km+ - 060°   060° 7 kt METAR LFLN 211830Z AUTO 06007KT CAVOK 25/17 Q1017 NOSIG
20:00
V
26 °C 10 km+ - 060°   060° 7 kt METAR LFLN 211800Z AUTO 06007KT CAVOK 26/17 Q1017 NOSIG
19:30
V
27 °C 10 km+ - 070°   070° 9 kt METAR LFLN 211730Z AUTO 07009KT CAVOK 27/18 Q1017 NOSIG
19:00
V
27 °C 10 km+ - 070°   070° 9 kt METAR LFLN 211700Z AUTO 07009KT CAVOK 27/17 Q1018 NOSIG
18:30
V
28 °C 10 km+ - 070°   070° 7 kt METAR LFLN 211630Z AUTO 07007KT 030V100 CAVOK 28/17 Q1018 NOSIG
18:00
V
28 °C 10 km+ - 060°   060° 8 kt METAR LFLN 211600Z AUTO 06008KT 020V100 CAVOK 28/18 Q1018 NOSIG
17:30
V
28 °C 10 km+ - 070°   070° 6 kt METAR LFLN 211530Z AUTO 07006KT 010V130 CAVOK 28/17 Q1018 NOSIG
17:00
V
28 °C 10 km+ - 050°   050° 6 kt METAR LFLN 211500Z AUTO 05006KT 010V090 CAVOK 28/17 Q1018 NOSIG
16:30
V
28 °C 10 km+ - Var   Var 3 kt METAR LFLN 211430Z AUTO VRB03KT CAVOK 28/18 Q1019 NOSIG
16:00
V
28 °C 10 km+ - 020°   020° 4 kt METAR LFLN 211400Z AUTO 02004KT 290V090 9999 FEW039 28/18 Q1019 NOSIG
15:30
V
28 °C 10 km+ - Var   Var 6 kt METAR LFLN 211330Z AUTO VRB06KT 9999 FEW039 28/17 Q1020 NOSIG
15:00
V
27 °C 10 km+ - 060°   060° 6 kt METAR LFLN 211300Z AUTO 06006KT 360V110 9999 FEW036 27/17 Q1020 NOSIG
14:30
V
26 °C 10 km+ 3.500 ft 070°   070° 6 kt METAR LFLN 211230Z AUTO 07006KT 030V110 9999 BKN035 26/17 Q1021 NOSIG
14:00
V
25 °C 10 km+ - 080°   080° 5 kt METAR LFLN 211200Z AUTO 08005KT 020V140 9999 SCT036 25/17 Q1021 NOSIG
13:30
V
25 °C 10 km+ - 110°   110° 4 kt METAR LFLN 211130Z AUTO 11004KT 050V200 9999 FEW033 25/17 Q1021 NOSIG
13:00
M
25 °C 10 km+ 2.900 ft 080°   080° 5 kt METAR LFLN 211100Z AUTO 08005KT 010V130 9999 BKN029 25/17 Q1021 NOSIG
12:30
M
25 °C 10 km+ 2.900 ft Var   Var 4 kt METAR LFLN 211030Z AUTO VRB04KT 9999 BKN029 25/17 Q1022 NOSIG
12:00
V
24 °C 10 km+ - 050°   050° 4 kt METAR LFLN 211000Z AUTO 05004KT 310V100 9999 SCT028 24/17 Q1022 NOSIG
11:30
V
24 °C 10 km+ - 050°   050° 5 kt METAR LFLN 210930Z AUTO 05005KT 350V110 9999 FEW034 24/16 Q1022 NOSIG
11:00
V
23 °C 10 km+ - 060°   060° 6 kt METAR LFLN 210900Z AUTO 06006KT 030V130 CAVOK 23/16 Q1022 NOSIG
10:30
V
22 °C 10 km+ 4.100 ft 080°   080° 7 kt METAR LFLN 210830Z AUTO 08007KT 050V120 9999 BKN041 22/15 Q1022 NOSIG
10:00
V
21 °C 10 km+ 4.400 ft 070°   070° 7 kt METAR LFLN 210800Z AUTO 07007KT 040V110 9999 BKN044 21/15 Q1023 NOSIG
09:30
V
20 °C 10 km+ 4.200 ft 080°   080° 6 kt METAR LFLN 210730Z AUTO 08006KT 9999 OVC042 20/15 Q1023 NOSIG
09:00
V
19 °C 10 km+ 3.900 ft 030°   030° 6 kt METAR LFLN 210700Z AUTO 03006KT 9999 BKN039 19/15 Q1023 NOSIG
08:30
V
18 °C 10 km+ 9.400 ft 040°   040° 6 kt METAR LFLN 210630Z AUTO 04006KT 010V070 9999 SCT045 BKN094 18/15 Q1023 NOSIG
08:00
V
18 °C 10 km+ - 060°   060° 7 kt METAR LFLN 210600Z AUTO 06007KT 9999 SCT045 18/15 Q1023 NOSIG
07:30
V
17 °C 10 km+ 4.500 ft 040°   040° 5 kt METAR LFLN 210530Z AUTO 04005KT 9999 BKN045 BKN096 17/15 Q1023 NOSIG
07:00
V
17 °C 10 km+ 4.400 ft 050°   050° 3 kt METAR LFLN 210500Z AUTO 05003KT 9999 FEW019 OVC044 17/15 Q1023
06:30
M
17 °C 10 km+ 1.700 ft 020°   020° 3 kt METAR LFLN 210430Z AUTO 02003KT 350V050 9999 OVC017 17/15 Q1023
06:00
V
16 °C 10 km+ - 030°   030° 5 kt METAR LFLN 210400Z AUTO 03005KT 9999 SCT015 16/14 Q1023
05:30
V
16 °C 10 km+ - 360°   360° 3 kt METAR LFLN 210330Z AUTO 36003KT 330V040 9999 SCT016 16/14 Q1023
05:00
V
17 °C 10 km+ 4.600 ft 320°   320° 4 kt METAR LFLN 210300Z AUTO 32004KT 9999 SCT014 SCT037 OVC046 17/15 Q1024
04:30
V
17 °C 10 km+ 3.500 ft 320°   320° 4 kt METAR LFLN 210230Z AUTO 32004KT 9999 BKN035 OVC043 17/15 Q1024
04:00
V
18 °C 10 km+ 4.300 ft 340°   340° 4 kt METAR LFLN 210200Z AUTO 34004KT 310V010 9999 FEW035 OVC043 18/15 Q1024
03:30
V
18 °C 10 km+ 3.900 ft 310°   310° 5 kt METAR LFLN 210130Z AUTO 31005KT 9999 OVC039 18/15 Q1024
03:00
V
18 °C 10 km+ 3.600 ft 300°   300° 4 kt METAR LFLN 210100Z AUTO 30004KT 9999 OVC036 18/15 Q1024
02:30
V
18 °C 10 km+ 3.400 ft 310°   310° 5 kt METAR LFLN 210030Z AUTO 31005KT 9999 OVC034 18/16 Q1024
02:00
V
18 °C 10 km+ - 310°   310° 7 kt METAR LFLN 210000Z AUTO 31007KT 9999 FEW040 18/16 Q1024
01:30
V
18 °C 9 km - 260°   260° 4 kt METAR LFLN 202330Z AUTO 26004KT 9000 FEW032 18/17 Q1024
01:00
V
19 °C 9 km 3.200 ft Var   000° 0 kt METAR LFLN 202300Z AUTO 00000KT 9000 BKN032 19/16 Q1024
00:30
V
20 °C 10 km+ 3.400 ft Var   000° 0 kt METAR LFLN 202230Z AUTO 00000KT 9999 OVC034 20/17 Q1024
00:00
V
20 °C 10 km+ - 300°   300° 3 kt METAR LFLN 202200Z AUTO 30003KT 9999 SCT031 20/17 Q1024

20 maggio 2022

Tempo Codice Tempo metereologico Temp. Vista Nuvole Vento METAR/SPECI
23:30
V
21 °C 10 km+ - 310°   310° 7 kt METAR LFLN 202130Z AUTO 31007KT 9999 SCT030 21/17 Q1023
23:00
V
22 °C 10 km+ - 320°   320° 9 kt METAR LFLN 202100Z AUTO 32009KT 9999 FEW034 22/18 Q1023
22:30
V
23 °C 10 km+ 3.000 ft 320°   320° 9 kt METAR LFLN 202030Z AUTO 32009KT 9999 BKN030 23/18 Q1023
22:00
V
23 °C 10 km+ - 330°   330° 7 kt METAR LFLN 202000Z AUTO 33007KT 9999 FEW035 23/18 Q1022
21:30
V
23 °C 10 km+ - 330°   330° 8 kt METAR LFLN 201930Z AUTO 33008KT CAVOK 23/18 Q1022
21:00
V
25 °C 10 km+ - 320°   320° 10 kt METAR LFLN 201900Z AUTO 32010KT CAVOK 25/17 Q1021 NOSIG
20:30
V
26 °C 10 km+ - 300°   300° 7 kt METAR LFLN 201830Z AUTO 30007KT CAVOK 26/15 Q1021 NOSIG
20:00
V
27 °C 8 km - 310°   310° 11 kt METAR LFLN 201800Z AUTO 31011KT 8000 NSC 27/14 Q1021 NOSIG
19:30
V
28 °C 8 km - 300°   300° 11 kt METAR LFLN 201730Z AUTO 30011KT 260V320 8000 NSC 28/14 Q1020 NOSIG
19:00
V
29 °C 9 km - 300°   300° 11 kt METAR LFLN 201700Z AUTO 30011KT 9000 NSC 29/14 Q1020 NOSIG
18:30
V
30 °C 9 km - 300°   300° 14 kt METAR LFLN 201630Z AUTO 30014KT 260V320 9000 NSC 30/13 Q1020 NOSIG
18:00
V
31 °C 10 km+ - 290°   290° 13 kt METAR LFLN 201600Z AUTO 29013KT CAVOK 31/12 Q1019 NOSIG
17:30
V
31 °C 10 km+ - 280°   280° 14 kt METAR LFLN 201530Z AUTO 28014KT 250V310 CAVOK 31/11 Q1019 NOSIG
17:00
V
31 °C 10 km+ - 290°   290° 12 kt METAR LFLN 201500Z AUTO 29012KT CAVOK 31/12 Q1019 NOSIG
16:30
V
32 °C 10 km+ - 270°   270° 12 kt METAR LFLN 201430Z AUTO 27012KT 200V300 CAVOK 32/11 Q1019 BECMG 28015G25KT
16:00
V
32 °C 10 km+ - 240°   240° 9 kt METAR LFLN 201400Z AUTO 24009KT 190V280 CAVOK 32/11 Q1019 BECMG 28015G25KT
15:30
V
32 °C 10 km+ - 250°   250° 7 kt METAR LFLN 201330Z AUTO 25007KT 210V280 CAVOK 32/13 Q1019 BECMG 28015G25KT
15:00
V
33 °C 10 km+ - 240°   240° 8 kt METAR LFLN 201300Z AUTO 24008KT 200V270 CAVOK 33/12 Q1019 BECMG 28015G25KT
14:30
V
33 °C 10 km+ - 250°   250° 9 kt METAR LFLN 201230Z AUTO 25009KT 200V290 CAVOK 33/10 Q1019 BECMG 28015G25KT
14:00
V
32 °C 10 km+ - 250°   250° 6 kt METAR LFLN 201200Z AUTO 25006KT 200V290 CAVOK 32/12 Q1019 BECMG 28015G25KT
13:30
V
32 °C 10 km+ - 190°   190° 8 kt METAR LFLN 201130Z AUTO 19008KT 150V220 CAVOK 32/11 Q1019 BECMG 28015G25KT
13:00
V
31 °C 10 km+ - 200°   200° 7 kt METAR LFLN 201100Z AUTO 20007KT 160V260 CAVOK 31/11 Q1019 BECMG 29015G25KT
12:30
V
31 °C 10 km+ - 190°   190° 8 kt METAR LFLN 201030Z AUTO 19008KT 150V240 CAVOK 31/11 Q1019 BECMG 29015G25KT
12:00
V
30 °C 10 km+ - 170°   170° 9 kt METAR LFLN 201000Z AUTO 17009KT 140V210 CAVOK 30/11 Q1019 NOSIG
11:30
V
29 °C 10 km+ - 170°   170° 11 kt METAR LFLN 200930Z AUTO 17011KT CAVOK 29/10 Q1019 NOSIG
11:00
V
28 °C 10 km+ - 180°   180° 10 kt METAR LFLN 200900Z AUTO 18010KT 140V210 CAVOK 28/11 Q1019 NOSIG
10:30
V
28 °C 10 km+ - 170°   170° 11 kt METAR LFLN 200830Z AUTO 17011KT 140V200 CAVOK 28/10 Q1019 NOSIG
10:00
V
27 °C 10 km+ - 170°   170° 8 kt METAR LFLN 200800Z AUTO 17008KT 140V200 CAVOK 27/10 Q1019 NOSIG
09:30
V
25 °C 10 km+ - 160°   160° 7 kt METAR LFLN 200730Z AUTO 16007KT 130V200 CAVOK 25/10 Q1019 NOSIG
09:00
V
23 °C 10 km+ - Var   Var 2 kt METAR LFLN 200700Z AUTO VRB02KT CAVOK 23/13 Q1020 NOSIG
08:30
V
21 °C 10 km+ - Var   Var 2 kt METAR LFLN 200630Z AUTO VRB02KT CAVOK 21/12 Q1020 NOSIG
08:00
V
18 °C 10 km+ - Var   Var 2 kt METAR LFLN 200600Z AUTO VRB02KT CAVOK 18/13 Q1020 NOSIG
07:30
V
16 °C 10 km+ - Var   000° 0 kt METAR LFLN 200530Z AUTO 00000KT CAVOK 16/13 Q1020 BECMG 18010KT
07:00
V
15 °C 10 km+ - Var   Var 1 kt METAR LFLN 200500Z AUTO VRB01KT CAVOK 15/12 Q1020
Dati più vecchi

Scarica la nostra applicazione

Facile accesso a tutte le previsioni dell'aviazione sul tuo cellulare e tablet.
Con molte caratteristiche non disponibili sul sito web, come il supporto offline e una lista personale di aeroporti.

Noi e le terze parti seguiamo il tuo comportamento in internet sul nostro sito web con i cookie. Se continui, riteniamo che tu sia d'accordo con la nostra politica sui cookie. Per saperne di più